sensor_id;sensor_type;location;lat;lon;timestamp;P1;durP1;ratioP1;P2;durP2;ratioP2
56045;SDS011;41913;51.030;3.706;2022-08-03T00:00:50;4.03;;;1.45;;
56045;SDS011;41913;51.030;3.706;2022-08-03T00:03:15;12.52;;;2.17;;
56045;SDS011;41913;51.030;3.706;2022-08-03T00:05:41;7.93;;;2.28;;
56045;SDS011;41913;51.030;3.706;2022-08-03T00:08:07;7.60;;;1.77;;
56045;SDS011;41913;51.030;3.706;2022-08-03T00:10:32;8.55;;;2.33;;
56045;SDS011;41913;51.030;3.706;2022-08-03T00:12:58;8.02;;;2.08;;
56045;SDS011;41913;51.030;3.706;2022-08-03T00:15:25;10.93;;;1.90;;
56045;SDS011;41913;51.030;3.706;2022-08-03T00:17:51;4.53;;;2.10;;
56045;SDS011;41913;51.030;3.706;2022-08-03T00:20:17;6.30;;;2.55;;
56045;SDS011;41913;51.030;3.706;2022-08-03T00:22:45;10.85;;;2.67;;
56045;SDS011;41913;51.030;3.706;2022-08-03T00:25:10;14.90;;;1.92;;
56045;SDS011;41913;51.030;3.706;2022-08-03T00:27:36;8.70;;;2.03;;
56045;SDS011;41913;51.030;3.706;2022-08-03T00:30:03;12.98;;;2.65;;
56045;SDS011;41913;51.030;3.706;2022-08-03T00:32:29;6.85;;;1.95;;
56045;SDS011;41913;51.030;3.706;2022-08-03T00:34:55;4.68;;;1.58;;
56045;SDS011;41913;51.030;3.706;2022-08-03T00:39:50;6.97;;;2.08;;
56045;SDS011;41913;51.030;3.706;2022-08-03T00:42:16;8.07;;;2.08;;
56045;SDS011;41913;51.030;3.706;2022-08-03T00:44:42;6.53;;;2.65;;
56045;SDS011;41913;51.030;3.706;2022-08-03T00:47:08;6.78;;;2.92;;
56045;SDS011;41913;51.030;3.706;2022-08-03T00:49:36;8.95;;;2.47;;
56045;SDS011;41913;51.030;3.706;2022-08-03T00:52:03;5.93;;;1.55;;
56045;SDS011;41913;51.030;3.706;2022-08-03T00:54:30;9.00;;;1.38;;
56045;SDS011;41913;51.030;3.706;2022-08-03T00:56:58;4.53;;;1.75;;
56045;SDS011;41913;51.030;3.706;2022-08-03T00:59:24;11.07;;;2.58;;
56045;SDS011;41913;51.030;3.706;2022-08-03T01:01:50;9.10;;;2.03;;
56045;SDS011;41913;51.030;3.706;2022-08-03T01:04:17;8.35;;;2.08;;
56045;SDS011;41913;51.030;3.706;2022-08-03T01:09:37;7.03;;;2.45;;
56045;SDS011;41913;51.030;3.706;2022-08-03T01:15:09;6.60;;;2.28;;
56045;SDS011;41913;51.030;3.706;2022-08-03T01:20:23;11.77;;;1.60;;
56045;SDS011;41913;51.030;3.706;2022-08-03T01:23:12;7.03;;;2.15;;
56045;SDS011;41913;51.030;3.706;2022-08-03T01:31:44;7.95;;;1.80;;
56045;SDS011;41913;51.030;3.706;2022-08-03T01:34:25;4.20;;;1.80;;
56045;SDS011;41913;51.030;3.706;2022-08-03T01:36:59;6.82;;;1.90;;
56045;SDS011;41913;51.030;3.706;2022-08-03T01:39:28;6.68;;;2.55;;
56045;SDS011;41913;51.030;3.706;2022-08-03T01:42:00;3.95;;;1.80;;
56045;SDS011;41913;51.030;3.706;2022-08-03T01:44:32;5.60;;;2.20;;
56045;SDS011;41913;51.030;3.706;2022-08-03T01:47:04;6.32;;;1.70;;
56045;SDS011;41913;51.030;3.706;2022-08-03T01:49:34;5.65;;;2.35;;
56045;SDS011;41913;51.030;3.706;2022-08-03T01:52:04;8.52;;;1.95;;
56045;SDS011;41913;51.030;3.706;2022-08-03T01:54:35;9.70;;;3.15;;
56045;SDS011;41913;51.030;3.706;2022-08-03T01:57:05;13.10;;;2.90;;
56045;SDS011;41913;51.030;3.706;2022-08-03T01:59:33;9.68;;;1.70;;
56045;SDS011;41913;51.030;3.706;2022-08-03T02:02:00;8.90;;;1.60;;
56045;SDS011;41913;51.030;3.706;2022-08-03T02:04:28;6.38;;;2.55;;
56045;SDS011;41913;51.030;3.706;2022-08-03T02:06:54;8.82;;;1.98;;
56045;SDS011;41913;51.030;3.706;2022-08-03T02:09:22;5.40;;;2.33;;
56045;SDS011;41913;51.030;3.706;2022-08-03T02:11:50;3.67;;;1.77;;
56045;SDS011;41913;51.030;3.706;2022-08-03T02:14:18;6.60;;;2.60;;
56045;SDS011;41913;51.030;3.706;2022-08-03T02:16:47;12.52;;;2.63;;
56045;SDS011;41913;51.030;3.706;2022-08-03T02:19:15;4.32;;;1.40;;
56045;SDS011;41913;51.030;3.706;2022-08-03T02:21:43;4.63;;;1.83;;
56045;SDS011;41913;51.030;3.706;2022-08-03T02:24:11;6.72;;;1.75;;
56045;SDS011;41913;51.030;3.706;2022-08-03T02:26:39;6.63;;;1.88;;
56045;SDS011;41913;51.030;3.706;2022-08-03T02:29:19;7.60;;;1.65;;
56045;SDS011;41913;51.030;3.706;2022-08-03T02:31:46;5.85;;;1.63;;
56045;SDS011;41913;51.030;3.706;2022-08-03T02:34:14;7.80;;;2.05;;
56045;SDS011;41913;51.030;3.706;2022-08-03T02:36:43;9.00;;;1.77;;
56045;SDS011;41913;51.030;3.706;2022-08-03T02:39:14;10.88;;;2.50;;
56045;SDS011;41913;51.030;3.706;2022-08-03T02:41:45;3.58;;;2.20;;
56045;SDS011;41913;51.030;3.706;2022-08-03T02:44:13;7.20;;;2.22;;
56045;SDS011;41913;51.030;3.706;2022-08-03T02:46:45;7.88;;;2.67;;
56045;SDS011;41913;51.030;3.706;2022-08-03T02:49:15;10.23;;;2.35;;
56045;SDS011;41913;51.030;3.706;2022-08-03T02:51:45;6.22;;;2.30;;
56045;SDS011;41913;51.030;3.706;2022-08-03T02:54:13;4.47;;;2.63;;
56045;SDS011;41913;51.030;3.706;2022-08-03T02:56:43;4.72;;;1.88;;
56045;SDS011;41913;51.030;3.706;2022-08-03T02:59:10;6.00;;;2.10;;
56045;SDS011;41913;51.030;3.706;2022-08-03T03:01:37;7.82;;;2.17;;
56045;SDS011;41913;51.030;3.706;2022-08-03T03:04:04;8.55;;;1.77;;
56045;SDS011;41913;51.030;3.706;2022-08-03T03:06:31;13.40;;;2.30;;
56045;SDS011;41913;51.030;3.706;2022-08-03T03:08:57;14.38;;;2.08;;
56045;SDS011;41913;51.030;3.706;2022-08-03T03:11:24;10.18;;;1.90;;
56045;SDS011;41913;51.030;3.706;2022-08-03T03:13:50;11.30;;;2.47;;
56045;SDS011;41913;51.030;3.706;2022-08-03T03:16:17;12.75;;;2.78;;
56045;SDS011;41913;51.030;3.706;2022-08-03T03:18:44;12.05;;;2.58;;
56045;SDS011;41913;51.030;3.706;2022-08-03T03:21:11;10.90;;;2.25;;
56045;SDS011;41913;51.030;3.706;2022-08-03T03:23:42;6.72;;;2.53;;
56045;SDS011;41913;51.030;3.706;2022-08-03T03:26:08;6.03;;;2.85;;
56045;SDS011;41913;51.030;3.706;2022-08-03T03:28:34;10.52;;;1.63;;
56045;SDS011;41913;51.030;3.706;2022-08-03T03:31:02;6.85;;;2.05;;
56045;SDS011;41913;51.030;3.706;2022-08-03T03:33:32;12.75;;;2.60;;
56045;SDS011;41913;51.030;3.706;2022-08-03T03:35:58;8.55;;;2.20;;
56045;SDS011;41913;51.030;3.706;2022-08-03T03:38:24;8.30;;;1.98;;
56045;SDS011;41913;51.030;3.706;2022-08-03T03:40:50;8.80;;;2.38;;
56045;SDS011;41913;51.030;3.706;2022-08-03T03:43:16;9.52;;;2.53;;
56045;SDS011;41913;51.030;3.706;2022-08-03T03:45:42;6.47;;;1.92;;
56045;SDS011;41913;51.030;3.706;2022-08-03T03:48:09;10.20;;;2.08;;
56045;SDS011;41913;51.030;3.706;2022-08-03T03:50:35;7.07;;;2.00;;
56045;SDS011;41913;51.030;3.706;2022-08-03T03:53:07;12.85;;;2.95;;
56045;SDS011;41913;51.030;3.706;2022-08-03T03:55:34;5.95;;;2.38;;
56045;SDS011;41913;51.030;3.706;2022-08-03T03:58:04;5.55;;;2.30;;
56045;SDS011;41913;51.030;3.706;2022-08-03T04:00:30;12.23;;;3.17;;
56045;SDS011;41913;51.030;3.706;2022-08-03T04:02:57;4.20;;;2.13;;
56045;SDS011;41913;51.030;3.706;2022-08-03T04:05:22;25.13;;;3.88;;
56045;SDS011;41913;51.030;3.706;2022-08-03T04:08:16;7.05;;;2.47;;
56045;SDS011;41913;51.030;3.706;2022-08-03T04:13:48;8.43;;;2.33;;
56045;SDS011;41913;51.030;3.706;2022-08-03T04:16:39;8.98;;;2.47;;
56045;SDS011;41913;51.030;3.706;2022-08-03T04:19:09;8.32;;;2.17;;
56045;SDS011;41913;51.030;3.706;2022-08-03T04:21:42;4.68;;;2.40;;
56045;SDS011;41913;51.030;3.706;2022-08-03T04:24:14;11.85;;;2.33;;
56045;SDS011;41913;51.030;3.706;2022-08-03T04:26:42;13.80;;;2.47;;
56045;SDS011;41913;51.030;3.706;2022-08-03T04:29:12;14.10;;;3.00;;
56045;SDS011;41913;51.030;3.706;2022-08-03T04:31:40;8.98;;;2.67;;
56045;SDS011;41913;51.030;3.706;2022-08-03T04:34:11;7.63;;;2.08;;
56045;SDS011;41913;51.030;3.706;2022-08-03T04:36:39;7.80;;;2.08;;
56045;SDS011;41913;51.030;3.706;2022-08-03T04:39:22;5.55;;;2.63;;
56045;SDS011;41913;51.030;3.706;2022-08-03T04:41:52;11.30;;;2.70;;
56045;SDS011;41913;51.030;3.706;2022-08-03T04:44:20;7.25;;;3.15;;
56045;SDS011;41913;51.030;3.706;2022-08-03T04:46:48;6.93;;;2.08;;
56045;SDS011;41913;51.030;3.706;2022-08-03T04:49:15;9.20;;;3.05;;
56045;SDS011;41913;51.030;3.706;2022-08-03T04:51:42;4.22;;;1.73;;
56045;SDS011;41913;51.030;3.706;2022-08-03T04:54:12;5.10;;;2.35;;
56045;SDS011;41913;51.030;3.706;2022-08-03T04:56:40;5.40;;;2.33;;
56045;SDS011;41913;51.030;3.706;2022-08-03T04:59:10;16.15;;;2.85;;
56045;SDS011;41913;51.030;3.706;2022-08-03T05:01:36;10.15;;;2.67;;
56045;SDS011;41913;51.030;3.706;2022-08-03T05:04:03;10.48;;;3.13;;
56045;SDS011;41913;51.030;3.706;2022-08-03T05:06:31;11.48;;;2.65;;
56045;SDS011;41913;51.030;3.706;2022-08-03T05:08:57;6.23;;;2.30;;
56045;SDS011;41913;51.030;3.706;2022-08-03T05:11:23;13.05;;;2.78;;
56045;SDS011;41913;51.030;3.706;2022-08-03T05:13:48;11.68;;;3.05;;
56045;SDS011;41913;51.030;3.706;2022-08-03T05:16:14;10.68;;;2.20;;
56045;SDS011;41913;51.030;3.706;2022-08-03T05:18:41;7.90;;;3.35;;
56045;SDS011;41913;51.030;3.706;2022-08-03T05:21:10;6.57;;;2.15;;
56045;SDS011;41913;51.030;3.706;2022-08-03T05:23:40;11.25;;;2.22;;
56045;SDS011;41913;51.030;3.706;2022-08-03T05:26:08;10.43;;;2.88;;
56045;SDS011;41913;51.030;3.706;2022-08-03T05:28:36;10.68;;;2.75;;
56045;SDS011;41913;51.030;3.706;2022-08-03T05:31:03;10.05;;;2.78;;
56045;SDS011;41913;51.030;3.706;2022-08-03T05:33:30;6.53;;;2.50;;
56045;SDS011;41913;51.030;3.706;2022-08-03T05:35:59;7.60;;;2.97;;
56045;SDS011;41913;51.030;3.706;2022-08-03T05:38:25;4.78;;;1.92;;
56045;SDS011;41913;51.030;3.706;2022-08-03T05:40:52;7.85;;;2.55;;
56045;SDS011;41913;51.030;3.706;2022-08-03T05:43:18;9.82;;;2.83;;
56045;SDS011;41913;51.030;3.706;2022-08-03T05:45:43;8.80;;;2.28;;
56045;SDS011;41913;51.030;3.706;2022-08-03T05:48:09;7.13;;;2.97;;
56045;SDS011;41913;51.030;3.706;2022-08-03T05:50:35;14.32;;;3.47;;
56045;SDS011;41913;51.030;3.706;2022-08-03T05:53:03;10.75;;;3.60;;
56045;SDS011;41913;51.030;3.706;2022-08-03T05:55:30;9.18;;;2.70;;
56045;SDS011;41913;51.030;3.706;2022-08-03T05:57:57;10.52;;;3.00;;
56045;SDS011;41913;51.030;3.706;2022-08-03T06:00:22;9.68;;;3.20;;
56045;SDS011;41913;51.030;3.706;2022-08-03T06:02:50;9.93;;;2.60;;
56045;SDS011;41913;51.030;3.706;2022-08-03T06:05:15;18.15;;;2.85;;
56045;SDS011;41913;51.030;3.706;2022-08-03T06:07:42;11.70;;;3.47;;
56045;SDS011;41913;51.030;3.706;2022-08-03T06:10:08;10.40;;;3.22;;
56045;SDS011;41913;51.030;3.706;2022-08-03T06:12:35;15.27;;;3.08;;
56045;SDS011;41913;51.030;3.706;2022-08-03T06:15:01;18.70;;;3.45;;
56045;SDS011;41913;51.030;3.706;2022-08-03T06:17:32;13.68;;;2.70;;
56045;SDS011;41913;51.030;3.706;2022-08-03T06:19:57;12.88;;;2.17;;
56045;SDS011;41913;51.030;3.706;2022-08-03T06:22:23;12.07;;;2.90;;
56045;SDS011;41913;51.030;3.706;2022-08-03T06:24:49;8.88;;;3.30;;
56045;SDS011;41913;51.030;3.706;2022-08-03T06:27:17;8.85;;;2.95;;
56045;SDS011;41913;51.030;3.706;2022-08-03T06:29:43;21.88;;;3.22;;
56045;SDS011;41913;51.030;3.706;2022-08-03T06:32:10;12.80;;;2.65;;
56045;SDS011;41913;51.030;3.706;2022-08-03T06:34:41;11.27;;;3.22;;
56045;SDS011;41913;51.030;3.706;2022-08-03T06:37:07;18.67;;;5.73;;
56045;SDS011;41913;51.030;3.706;2022-08-03T06:39:33;30.85;;;2.97;;
56045;SDS011;41913;51.030;3.706;2022-08-03T06:41:59;16.70;;;2.45;;
56045;SDS011;41913;51.030;3.706;2022-08-03T06:44:25;14.65;;;2.50;;
56045;SDS011;41913;51.030;3.706;2022-08-03T06:46:51;11.85;;;2.40;;
56045;SDS011;41913;51.030;3.706;2022-08-03T06:49:19;9.18;;;2.05;;
56045;SDS011;41913;51.030;3.706;2022-08-03T06:51:44;10.95;;;2.55;;
56045;SDS011;41913;51.030;3.706;2022-08-03T06:54:10;13.95;;;3.45;;
56045;SDS011;41913;51.030;3.706;2022-08-03T06:56:36;13.88;;;2.97;;
56045;SDS011;41913;51.030;3.706;2022-08-03T06:59:02;15.05;;;3.53;;
56045;SDS011;41913;51.030;3.706;2022-08-03T07:01:28;7.32;;;2.20;;
56045;SDS011;41913;51.030;3.706;2022-08-03T07:03:54;16.27;;;2.60;;
56045;SDS011;41913;51.030;3.706;2022-08-03T07:06:20;11.13;;;2.45;;
56045;SDS011;41913;51.030;3.706;2022-08-03T07:08:46;12.30;;;2.17;;
56045;SDS011;41913;51.030;3.706;2022-08-03T07:11:11;14.18;;;2.60;;
56045;SDS011;41913;51.030;3.706;2022-08-03T07:13:37;10.45;;;2.60;;
56045;SDS011;41913;51.030;3.706;2022-08-03T07:16:07;10.50;;;2.08;;
56045;SDS011;41913;51.030;3.706;2022-08-03T07:18:32;15.15;;;3.35;;
56045;SDS011;41913;51.030;3.706;2022-08-03T07:21:03;9.15;;;2.10;;
56045;SDS011;41913;51.030;3.706;2022-08-03T07:23:30;9.43;;;2.08;;
56045;SDS011;41913;51.030;3.706;2022-08-03T07:25:56;15.30;;;2.53;;
56045;SDS011;41913;51.030;3.706;2022-08-03T07:28:22;13.07;;;2.85;;
56045;SDS011;41913;51.030;3.706;2022-08-03T07:30:47;12.13;;;3.13;;
56045;SDS011;41913;51.030;3.706;2022-08-03T07:33:14;14.23;;;2.88;;
56045;SDS011;41913;51.030;3.706;2022-08-03T07:35:40;8.50;;;2.60;;
56045;SDS011;41913;51.030;3.706;2022-08-03T07:38:07;11.35;;;2.92;;
56045;SDS011;41913;51.030;3.706;2022-08-03T07:40:32;9.95;;;3.47;;
56045;SDS011;41913;51.030;3.706;2022-08-03T07:42:58;15.73;;;3.00;;
56045;SDS011;41913;51.030;3.706;2022-08-03T07:45:24;13.73;;;2.97;;
56045;SDS011;41913;51.030;3.706;2022-08-03T07:47:52;14.35;;;2.65;;
56045;SDS011;41913;51.030;3.706;2022-08-03T07:50:18;22.73;;;3.30;;
56045;SDS011;41913;51.030;3.706;2022-08-03T07:52:43;11.90;;;2.40;;
56045;SDS011;41913;51.030;3.706;2022-08-03T07:55:12;14.00;;;2.95;;
56045;SDS011;41913;51.030;3.706;2022-08-03T07:57:38;16.80;;;3.10;;
56045;SDS011;41913;51.030;3.706;2022-08-03T08:00:05;16.48;;;3.35;;
56045;SDS011;41913;51.030;3.706;2022-08-03T08:02:37;9.60;;;2.63;;
56045;SDS011;41913;51.030;3.706;2022-08-03T08:05:03;9.88;;;2.58;;
56045;SDS011;41913;51.030;3.706;2022-08-03T08:07:29;9.48;;;2.97;;
56045;SDS011;41913;51.030;3.706;2022-08-03T08:09:56;14.88;;;2.92;;
56045;SDS011;41913;51.030;3.706;2022-08-03T08:12:21;15.88;;;3.28;;
56045;SDS011;41913;51.030;3.706;2022-08-03T08:14:47;11.05;;;3.22;;
56045;SDS011;41913;51.030;3.706;2022-08-03T08:17:13;9.85;;;2.58;;
56045;SDS011;41913;51.030;3.706;2022-08-03T08:19:39;19.95;;;3.35;;
56045;SDS011;41913;51.030;3.706;2022-08-03T08:22:04;14.57;;;3.33;;
56045;SDS011;41913;51.030;3.706;2022-08-03T08:24:33;15.68;;;3.33;;
56045;SDS011;41913;51.030;3.706;2022-08-03T08:26:59;21.83;;;3.20;;
56045;SDS011;41913;51.030;3.706;2022-08-03T08:29:25;11.23;;;2.45;;
56045;SDS011;41913;51.030;3.706;2022-08-03T08:31:51;15.07;;;3.25;;
56045;SDS011;41913;51.030;3.706;2022-08-03T08:34:17;21.27;;;3.60;;
56045;SDS011;41913;51.030;3.706;2022-08-03T08:36:42;14.63;;;2.63;;
56045;SDS011;41913;51.030;3.706;2022-08-03T08:39:10;13.30;;;2.42;;
56045;SDS011;41913;51.030;3.706;2022-08-03T08:41:36;11.55;;;2.95;;
56045;SDS011;41913;51.030;3.706;2022-08-03T08:44:02;14.02;;;3.35;;
56045;SDS011;41913;51.030;3.706;2022-08-03T08:46:32;17.40;;;3.17;;
56045;SDS011;41913;51.030;3.706;2022-08-03T08:48:58;12.93;;;2.80;;
56045;SDS011;41913;51.030;3.706;2022-08-03T08:51:29;15.93;;;3.05;;
56045;SDS011;41913;51.030;3.706;2022-08-03T08:54:00;19.95;;;3.03;;
56045;SDS011;41913;51.030;3.706;2022-08-03T08:56:28;13.75;;;3.47;;
56045;SDS011;41913;51.030;3.706;2022-08-03T08:59:01;20.63;;;3.03;;
56045;SDS011;41913;51.030;3.706;2022-08-03T09:01:27;13.60;;;3.25;;
56045;SDS011;41913;51.030;3.706;2022-08-03T09:03:53;13.65;;;2.88;;
56045;SDS011;41913;51.030;3.706;2022-08-03T09:06:19;13.23;;;3.13;;
56045;SDS011;41913;51.030;3.706;2022-08-03T09:08:46;22.88;;;3.10;;
56045;SDS011;41913;51.030;3.706;2022-08-03T09:11:13;14.23;;;2.65;;
56045;SDS011;41913;51.030;3.706;2022-08-03T09:13:39;7.63;;;2.70;;
56045;SDS011;41913;51.030;3.706;2022-08-03T09:16:07;16.92;;;3.25;;
56045;SDS011;41913;51.030;3.706;2022-08-03T09:18:34;11.70;;;2.83;;
56045;SDS011;41913;51.030;3.706;2022-08-03T09:23:56;18.90;;;2.63;;
56045;SDS011;41913;51.030;3.706;2022-08-03T09:26:25;17.10;;;2.70;;
56045;SDS011;41913;51.030;3.706;2022-08-03T09:28:59;8.80;;;2.97;;
56045;SDS011;41913;51.030;3.706;2022-08-03T09:31:33;8.98;;;2.53;;
56045;SDS011;41913;51.030;3.706;2022-08-03T09:34:01;6.35;;;2.13;;
56045;SDS011;41913;51.030;3.706;2022-08-03T09:36:37;13.15;;;2.95;;
56045;SDS011;41913;51.030;3.706;2022-08-03T09:39:09;12.23;;;2.22;;
56045;SDS011;41913;51.030;3.706;2022-08-03T09:41:38;16.17;;;2.47;;
56045;SDS011;41913;51.030;3.706;2022-08-03T09:44:05;18.70;;;2.60;;
56045;SDS011;41913;51.030;3.706;2022-08-03T09:46:31;8.05;;;2.20;;
56045;SDS011;41913;51.030;3.706;2022-08-03T09:49:11;6.47;;;2.10;;
56045;SDS011;41913;51.030;3.706;2022-08-03T09:51:38;13.73;;;2.80;;
56045;SDS011;41913;51.030;3.706;2022-08-03T09:54:05;7.30;;;2.35;;
56045;SDS011;41913;51.030;3.706;2022-08-03T09:56:41;14.80;;;2.83;;
56045;SDS011;41913;51.030;3.706;2022-08-03T09:59:09;9.25;;;2.10;;
56045;SDS011;41913;51.030;3.706;2022-08-03T10:01:36;10.60;;;2.75;;
56045;SDS011;41913;51.030;3.706;2022-08-03T10:04:05;7.88;;;1.90;;
56045;SDS011;41913;51.030;3.706;2022-08-03T10:06:39;9.43;;;1.92;;
56045;SDS011;41913;51.030;3.706;2022-08-03T10:11:33;9.65;;;2.85;;
56045;SDS011;41913;51.030;3.706;2022-08-03T10:14:10;14.05;;;2.15;;
56045;SDS011;41913;51.030;3.706;2022-08-03T10:16:43;8.93;;;2.42;;
56045;SDS011;41913;51.030;3.706;2022-08-03T10:19:11;15.40;;;2.80;;
56045;SDS011;41913;51.030;3.706;2022-08-03T10:21:41;8.20;;;2.13;;
56045;SDS011;41913;51.030;3.706;2022-08-03T10:24:13;13.27;;;1.88;;
56045;SDS011;41913;51.030;3.706;2022-08-03T10:26:45;7.00;;;2.20;;
56045;SDS011;41913;51.030;3.706;2022-08-03T10:29:16;15.15;;;3.30;;
56045;SDS011;41913;51.030;3.706;2022-08-03T10:31:45;13.18;;;2.13;;
56045;SDS011;41913;51.030;3.706;2022-08-03T10:34:22;6.72;;;1.75;;
56045;SDS011;41913;51.030;3.706;2022-08-03T10:36:55;12.07;;;1.40;;
56045;SDS011;41913;51.030;3.706;2022-08-03T10:39:26;12.15;;;2.03;;
56045;SDS011;41913;51.030;3.706;2022-08-03T10:41:53;9.25;;;1.63;;
56045;SDS011;41913;51.030;3.706;2022-08-03T10:44:23;7.40;;;2.08;;
56045;SDS011;41913;51.030;3.706;2022-08-03T10:46:54;4.50;;;1.75;;
56045;SDS011;41913;51.030;3.706;2022-08-03T10:49:21;7.88;;;2.55;;
56045;SDS011;41913;51.030;3.706;2022-08-03T10:51:51;8.57;;;2.17;;
56045;SDS011;41913;51.030;3.706;2022-08-03T10:57:01;12.50;;;2.00;;
56045;SDS011;41913;51.030;3.706;2022-08-03T11:02:11;8.88;;;1.98;;
56045;SDS011;41913;51.030;3.706;2022-08-03T11:04:38;5.28;;;1.77;;
56045;SDS011;41913;51.030;3.706;2022-08-03T11:09:51;8.43;;;1.42;;
56045;SDS011;41913;51.030;3.706;2022-08-03T11:14:53;5.30;;;1.80;;
56045;SDS011;41913;51.030;3.706;2022-08-03T11:17:21;4.82;;;1.35;;
56045;SDS011;41913;51.030;3.706;2022-08-03T11:19:47;10.07;;;1.58;;
56045;SDS011;41913;51.030;3.706;2022-08-03T11:22:14;9.57;;;1.80;;
56045;SDS011;41913;51.030;3.706;2022-08-03T11:35:07;5.20;;;1.65;;
56045;SDS011;41913;51.030;3.706;2022-08-03T11:43:03;7.38;;;1.33;;
56045;SDS011;41913;51.030;3.706;2022-08-03T11:45:30;2.13;;;1.17;;
56045;SDS011;41913;51.030;3.706;2022-08-03T11:47:57;3.78;;;1.58;;
56045;SDS011;41913;51.030;3.706;2022-08-03T11:50:35;3.97;;;1.30;;
56045;SDS011;41913;51.030;3.706;2022-08-03T11:53:02;8.82;;;1.55;;
56045;SDS011;41913;51.030;3.706;2022-08-03T11:55:30;9.57;;;1.33;;
56045;SDS011;41913;51.030;3.706;2022-08-03T11:57:59;4.53;;;1.30;;
56045;SDS011;41913;51.030;3.706;2022-08-03T12:00:27;5.32;;;2.15;;
56045;SDS011;41913;51.030;3.706;2022-08-03T12:02:55;5.07;;;1.25;;
56045;SDS011;41913;51.030;3.706;2022-08-03T12:05:43;3.10;;;1.20;;
56045;SDS011;41913;51.030;3.706;2022-08-03T12:08:10;6.68;;;1.30;;
56045;SDS011;41913;51.030;3.706;2022-08-03T12:10:37;7.03;;;1.30;;
56045;SDS011;41913;51.030;3.706;2022-08-03T12:13:04;13.02;;;1.63;;
56045;SDS011;41913;51.030;3.706;2022-08-03T12:15:35;4.40;;;1.25;;
56045;SDS011;41913;51.030;3.706;2022-08-03T12:18:11;6.40;;;1.45;;
56045;SDS011;41913;51.030;3.706;2022-08-03T12:20:39;1.98;;;1.02;;
56045;SDS011;41913;51.030;3.706;2022-08-03T12:23:06;8.70;;;2.00;;
56045;SDS011;41913;51.030;3.706;2022-08-03T12:25:34;4.72;;;1.30;;
56045;SDS011;41913;51.030;3.706;2022-08-03T12:28:05;7.03;;;1.15;;
56045;SDS011;41913;51.030;3.706;2022-08-03T12:30:37;4.20;;;1.25;;
56045;SDS011;41913;51.030;3.706;2022-08-03T12:33:11;8.73;;;1.65;;
56045;SDS011;41913;51.030;3.706;2022-08-03T12:36:10;6.07;;;1.23;;
56045;SDS011;41913;51.030;3.706;2022-08-03T12:38:36;3.72;;;1.42;;
56045;SDS011;41913;51.030;3.706;2022-08-03T12:41:04;6.18;;;1.00;;
56045;SDS011;41913;51.030;3.706;2022-08-03T12:43:32;8.23;;;1.77;;
56045;SDS011;41913;51.030;3.706;2022-08-03T12:46:06;7.13;;;1.58;;
56045;SDS011;41913;51.030;3.706;2022-08-03T12:48:32;7.53;;;1.15;;
56045;SDS011;41913;51.030;3.706;2022-08-03T12:51:10;3.58;;;1.52;;
56045;SDS011;41913;51.030;3.706;2022-08-03T12:53:38;14.20;;;1.67;;
56045;SDS011;41913;51.030;3.706;2022-08-03T12:56:05;5.82;;;1.55;;
56045;SDS011;41913;51.030;3.706;2022-08-03T13:01:02;9.85;;;1.35;;
56045;SDS011;41913;51.030;3.706;2022-08-03T13:03:37;8.20;;;1.42;;
56045;SDS011;41913;51.030;3.706;2022-08-03T13:06:12;10.95;;;2.40;;
56045;SDS011;41913;51.030;3.706;2022-08-03T13:08:39;6.82;;;1.10;;
56045;SDS011;41913;51.030;3.706;2022-08-03T13:13:45;8.95;;;1.42;;
56045;SDS011;41913;51.030;3.706;2022-08-03T13:16:12;3.08;;;1.17;;
56045;SDS011;41913;51.030;3.706;2022-08-03T13:18:38;7.40;;;1.60;;
56045;SDS011;41913;51.030;3.706;2022-08-03T13:21:10;5.20;;;1.45;;
56045;SDS011;41913;51.030;3.706;2022-08-03T13:26:01;5.55;;;1.52;;
56045;SDS011;41913;51.030;3.706;2022-08-03T13:28:27;3.03;;;1.13;;
56045;SDS011;41913;51.030;3.706;2022-08-03T13:30:55;5.82;;;1.92;;
56045;SDS011;41913;51.030;3.706;2022-08-03T13:33:21;5.50;;;1.23;;
56045;SDS011;41913;51.030;3.706;2022-08-03T13:35:53;8.35;;;1.75;;
56045;SDS011;41913;51.030;3.706;2022-08-03T13:38:19;6.78;;;1.52;;
56045;SDS011;41913;51.030;3.706;2022-08-03T13:40:46;6.90;;;1.30;;
56045;SDS011;41913;51.030;3.706;2022-08-03T13:43:12;2.30;;;1.13;;
56045;SDS011;41913;51.030;3.706;2022-08-03T13:45:38;3.92;;;1.15;;
56045;SDS011;41913;51.030;3.706;2022-08-03T13:48:04;5.78;;;1.42;;
56045;SDS011;41913;51.030;3.706;2022-08-03T13:50:30;3.60;;;1.00;;
56045;SDS011;41913;51.030;3.706;2022-08-03T13:52:56;3.70;;;1.20;;
56045;SDS011;41913;51.030;3.706;2022-08-03T13:55:22;2.17;;;1.17;;
56045;SDS011;41913;51.030;3.706;2022-08-03T13:57:48;4.28;;;1.10;;
56045;SDS011;41913;51.030;3.706;2022-08-03T14:00:14;10.25;;;1.70;;
56045;SDS011;41913;51.030;3.706;2022-08-03T14:02:42;5.68;;;1.15;;
56045;SDS011;41913;51.030;3.706;2022-08-03T14:05:07;3.75;;;1.40;;
56045;SDS011;41913;51.030;3.706;2022-08-03T14:07:33;3.95;;;1.77;;
56045;SDS011;41913;51.030;3.706;2022-08-03T14:09:59;6.70;;;1.50;;
56045;SDS011;41913;51.030;3.706;2022-08-03T14:12:25;3.90;;;1.20;;
56045;SDS011;41913;51.030;3.706;2022-08-03T14:14:52;1.75;;;1.20;;
56045;SDS011;41913;51.030;3.706;2022-08-03T14:17:18;6.20;;;1.75;;
56045;SDS011;41913;51.030;3.706;2022-08-03T14:19:44;4.18;;;1.95;;
56045;SDS011;41913;51.030;3.706;2022-08-03T14:22:10;3.58;;;1.17;;
56045;SDS011;41913;51.030;3.706;2022-08-03T14:24:35;4.85;;;1.35;;
56045;SDS011;41913;51.030;3.706;2022-08-03T14:27:02;9.52;;;1.88;;
56045;SDS011;41913;51.030;3.706;2022-08-03T14:29:29;4.20;;;1.38;;
56045;SDS011;41913;51.030;3.706;2022-08-03T14:31:56;11.52;;;1.83;;
56045;SDS011;41913;51.030;3.706;2022-08-03T14:34:22;8.68;;;1.40;;
56045;SDS011;41913;51.030;3.706;2022-08-03T14:36:48;2.38;;;1.23;;
56045;SDS011;41913;51.030;3.706;2022-08-03T14:39:14;7.38;;;1.85;;
56045;SDS011;41913;51.030;3.706;2022-08-03T14:41:39;9.25;;;1.58;;
56045;SDS011;41913;51.030;3.706;2022-08-03T14:44:05;2.83;;;1.20;;
56045;SDS011;41913;51.030;3.706;2022-08-03T14:46:31;3.15;;;1.42;;
56045;SDS011;41913;51.030;3.706;2022-08-03T14:48:57;3.65;;;1.35;;
56045;SDS011;41913;51.030;3.706;2022-08-03T14:51:23;2.95;;;1.20;;
56045;SDS011;41913;51.030;3.706;2022-08-03T14:53:49;9.82;;;1.38;;
56045;SDS011;41913;51.030;3.706;2022-08-03T14:56:16;5.13;;;0.93;;
56045;SDS011;41913;51.030;3.706;2022-08-03T14:58:42;4.20;;;1.35;;
56045;SDS011;41913;51.030;3.706;2022-08-03T15:01:08;5.72;;;1.30;;
56045;SDS011;41913;51.030;3.706;2022-08-03T15:03:35;8.18;;;1.95;;
56045;SDS011;41913;51.030;3.706;2022-08-03T15:06:00;6.05;;;1.40;;
56045;SDS011;41913;51.030;3.706;2022-08-03T15:08:27;5.20;;;1.30;;
56045;SDS011;41913;51.030;3.706;2022-08-03T15:10:53;3.33;;;1.15;;
56045;SDS011;41913;51.030;3.706;2022-08-03T15:13:19;5.85;;;1.60;;
56045;SDS011;41913;51.030;3.706;2022-08-03T15:15:46;4.03;;;1.02;;
56045;SDS011;41913;51.030;3.706;2022-08-03T15:18:12;4.03;;;0.88;;
56045;SDS011;41913;51.030;3.706;2022-08-03T15:20:37;2.33;;;1.35;;
56045;SDS011;41913;51.030;3.706;2022-08-03T15:23:04;3.67;;;1.30;;
56045;SDS011;41913;51.030;3.706;2022-08-03T15:25:30;2.75;;;1.13;;
56045;SDS011;41913;51.030;3.706;2022-08-03T15:28:02;4.32;;;1.10;;
56045;SDS011;41913;51.030;3.706;2022-08-03T15:30:28;1.27;;;1.10;;
56045;SDS011;41913;51.030;3.706;2022-08-03T15:32:56;7.50;;;1.55;;
56045;SDS011;41913;51.030;3.706;2022-08-03T15:35:21;3.75;;;0.60;;
56045;SDS011;41913;51.030;3.706;2022-08-03T15:37:47;4.60;;;1.70;;
56045;SDS011;41913;51.030;3.706;2022-08-03T15:40:13;4.95;;;0.88;;
56045;SDS011;41913;51.030;3.706;2022-08-03T15:42:42;5.68;;;1.10;;
56045;SDS011;41913;51.030;3.706;2022-08-03T15:45:08;2.83;;;1.00;;
56045;SDS011;41913;51.030;3.706;2022-08-03T15:47:35;2.60;;;0.68;;